Salona — J8B4719 — position and weather

sailwx.info

Track history (hours):
 
Tides and Currents Weather Stations Pressure Air Temp Water Temp Dewpoint Dewpoint Depression Visibility Wind Speed Wind Dir Waves Ship Positions

Salona

Last reported at 2014-Aug-25 22:13 UTC. Time now 2014-Sep-02 23:54 UTC.
Position N 37°04' W 009°22'.
Warning: this ship's position is 8 days out of date.

Length 70 m; draft 3.1 m.

Type: Cargo ship. MMSI: 376099000.

Date/timePositionNaut miles runAvg speedWind from/ knotsBaromVisibWave heightAir tempDewpointWater temp
2014-Aug-25 22:13N 37°04' W 009°22'4 5.4
2014-Aug-25 21:32N 37°01' W 009°20'7 5.8
2014-Aug-25 20:20N 36°54' W 009°18'4 5.7
2014-Aug-25 19:34N 36°50' W 009°15'6 6.0
2014-Aug-25 18:34N 36°46' W 009°10'7 6.6
2014-Aug-25 17:34N 36°43' W 009°03'7 6.9
2014-Aug-25 16:34N 36°41' W 008°54'7 7.0
2014-Aug-25 15:34N 36°38' W 008°46'172 7.0
2014-Aug-24 15:05N 35°56' W 005°20'2 4.3
2014-Aug-24 14:33N 35°54' W 005°19'0 0.0
2014-Aug-24 13:33N 35°54' W 005°19'0 0.0
2014-Aug-24 12:30N 35°54' W 005°19'1 1.4
2014-Aug-24 11:33N 35°55' W 005°18'231 6.7
2014-Aug-23 01:05N 37°01' W 000°43'19 6.7
2014-Aug-22 22:11N 37°11' W 000°22'6 7.0
2014-Aug-22 21:21N 37°14' W 000°16'13 7.0
2014-Aug-22 19:33N 37°19' W 000°01'7 7.3
2014-Aug-22 18:33N 37°22' E 000°07'16 7.1
2014-Aug-22 16:17N 37°29' E 000°25'  
2014-Aug-20 09:32N 38°37' E 008°41'7 7.5
2014-Aug-20 08:33N 38°37' E 008°51'199 6.6
2014-Aug-19 02:29N 38°16' E 013°04'7 7.0
2014-Aug-19 01:33N 38°16' E 013°12'7 7.5
2014-Aug-19 00:34N 38°16' E 013°22'8 7.7
2014-Aug-18 23:34N 38°16' E 013°31'  
Track history (hours):
 
Tides and Currents Weather Stations Pressure Air Temp Water Temp Dewpoint Dewpoint Depression Visibility Wind Speed Wind Dir Waves Ship Positions

Salona

Last reported at 2014-Aug-25 22:13 UTC. Time now 2014-Sep-02 23:54 UTC.
Position N 37°04' W 009°22'.
Warning: this ship's position is 8 days out of date.

Length 70 m; draft 3.1 m.

Type: Cargo ship. MMSI: 376099000.

Date/timePositionNaut miles runAvg speedWind from/ knotsBaromVisibWave heightAir tempDewpointWater temp
2014-Aug-25 22:13N 37°04' W 009°22'4 5.4
2014-Aug-25 21:32N 37°01' W 009°20'7 5.8
2014-Aug-25 20:20N 36°54' W 009°18'4 5.7
2014-Aug-25 19:34N 36°50' W 009°15'6 6.0
2014-Aug-25 18:34N 36°46' W 009°10'7 6.6
2014-Aug-25 17:34N 36°43' W 009°03'7 6.9
2014-Aug-25 16:34N 36°41' W 008°54'7 7.0
2014-Aug-25 15:34N 36°38' W 008°46'172 7.0
2014-Aug-24 15:05N 35°56' W 005°20'2 4.3
2014-Aug-24 14:33N 35°54' W 005°19'0 0.0
2014-Aug-24 13:33N 35°54' W 005°19'0 0.0
2014-Aug-24 12:30N 35°54' W 005°19'1 1.4
2014-Aug-24 11:33N 35°55' W 005°18'231 6.7
2014-Aug-23 01:05N 37°01' W 000°43'19 6.7
2014-Aug-22 22:11N 37°11' W 000°22'6 7.0
2014-Aug-22 21:21N 37°14' W 000°16'13 7.0
2014-Aug-22 19:33N 37°19' W 000°01'7 7.3
2014-Aug-22 18:33N 37°22' E 000°07'16 7.1
2014-Aug-22 16:17N 37°29' E 000°25'  
2014-Aug-20 09:32N 38°37' E 008°41'7 7.5
2014-Aug-20 08:33N 38°37' E 008°51'199 6.6
2014-Aug-19 02:29N 38°16' E 013°04'7 7.0
2014-Aug-19 01:33N 38°16' E 013°12'7 7.5
2014-Aug-19 00:34N 38°16' E 013°22'8 7.7
2014-Aug-18 23:34N 38°16' E 013°31'  

Dump ship's entire track history